<?xml version="1.0" encoding="UTF-8" standalone="no" ?>
<gpx xmlns="http://www.topografix.com/GPX/1/1" xmlns:xsi="http://www.w3.org/2001/XMLSchema-instance" xsi:schemaLocation="http://www.topografix.com/GPX/1/1 http://www.topografix.com/GPX/1/1/gpx.xsd" version="1.1" creator="VisuGPX - https://www.visugpx.com">
  <metadata>
    <name>Rochefort - Baverans</name>
    <desc><![CDATA[randonnée effectuée le 21 mars 2018]]></desc>
  </metadata>
  <trk>
    <name><![CDATA[21 mars 2018 à 09:02:36]]></name>
    <cmt><![CDATA[21 mars 2018 à 09:02:36]]></cmt>
    <trkseg>
      <trkpt lat="47.12576" lon="5.55955">
        <ele>204</ele>
        <time>2018-03-21T08:02:37Z</time>
      </trkpt>
      <trkpt lat="47.12563" lon="5.55952">
        <ele>204</ele>
        <time>2018-03-21T08:02:52Z</time>
      </trkpt>
      <trkpt lat="47.12557" lon="5.55952">
        <ele>203</ele>
        <time>2018-03-21T08:03:08Z</time>
      </trkpt>
      <trkpt lat="47.12553" lon="5.55954">
        <ele>203</ele>
        <time>2018-03-21T08:03:16Z</time>
      </trkpt>
      <trkpt lat="47.12549" lon="5.55959">
        <ele>203</ele>
        <time>2018-03-21T08:03:20Z</time>
      </trkpt>
      <trkpt lat="47.12547" lon="5.55965">
        <ele>203</ele>
        <time>2018-03-21T08:03:24Z</time>
      </trkpt>
      <trkpt lat="47.1254" lon="5.55962">
        <ele>203</ele>
        <time>2018-03-21T08:03:34Z</time>
      </trkpt>
      <trkpt lat="47.12536" lon="5.55966">
        <ele>203</ele>
        <time>2018-03-21T08:03:37Z</time>
      </trkpt>
      <trkpt lat="47.1253" lon="5.55977">
        <ele>203</ele>
        <time>2018-03-21T08:03:43Z</time>
      </trkpt>
      <trkpt lat="47.12514" lon="5.55995">
        <ele>202</ele>
        <time>2018-03-21T08:03:59Z</time>
      </trkpt>
      <trkpt lat="47.1251" lon="5.56">
        <ele>202</ele>
        <time>2018-03-21T08:04:03Z</time>
      </trkpt>
      <trkpt lat="47.12508" lon="5.56007">
        <ele>202</ele>
        <time>2018-03-21T08:04:08Z</time>
      </trkpt>
      <trkpt lat="47.12504" lon="5.56021">
        <ele>202</ele>
        <time>2018-03-21T08:04:19Z</time>
      </trkpt>
      <trkpt lat="47.12506" lon="5.56036">
        <ele>203</ele>
        <time>2018-03-21T08:04:28Z</time>
      </trkpt>
      <trkpt lat="47.12505" lon="5.56036">
        <ele>204</ele>
        <time>2018-03-21T08:04:45Z</time>
      </trkpt>
      <trkpt lat="47.12507" lon="5.56028">
        <ele>204</ele>
        <time>2018-03-21T08:04:49Z</time>
      </trkpt>
      <trkpt lat="47.1251" lon="5.56023">
        <ele>204</ele>
        <time>2018-03-21T08:04:53Z</time>
      </trkpt>
      <trkpt lat="47.12514" lon="5.56017">
        <ele>203</ele>
        <time>2018-03-21T08:04:57Z</time>
      </trkpt>
      <trkpt lat="47.12517" lon="5.5601">
        <ele>203</ele>
        <time>2018-03-21T08:05:02Z</time>
      </trkpt>
      <trkpt lat="47.12519" lon="5.56003">
        <ele>203</ele>
        <time>2018-03-21T08:05:06Z</time>
      </trkpt>
      <trkpt lat="47.12517" lon="5.55996">
        <ele>203</ele>
        <time>2018-03-21T08:05:11Z</time>
      </trkpt>
      <trkpt lat="47.12525" lon="5.5596">
        <ele>204</ele>
        <time>2018-03-21T08:05:34Z</time>
      </trkpt>
      <trkpt lat="47.12521" lon="5.55955">
        <ele>204</ele>
        <time>2018-03-21T08:05:38Z</time>
      </trkpt>
      <trkpt lat="47.12506" lon="5.55945">
        <ele>203</ele>
        <time>2018-03-21T08:05:50Z</time>
      </trkpt>
      <trkpt lat="47.12467" lon="5.55929">
        <ele>201</ele>
        <time>2018-03-21T08:06:22Z</time>
      </trkpt>
      <trkpt lat="47.12463" lon="5.55926">
        <ele>201</ele>
        <time>2018-03-21T08:06:26Z</time>
      </trkpt>
      <trkpt lat="47.12448" lon="5.55921">
        <ele>201</ele>
        <time>2018-03-21T08:06:40Z</time>
      </trkpt>
      <trkpt lat="47.12434" lon="5.55911">
        <ele>202</ele>
        <time>2018-03-21T08:06:52Z</time>
      </trkpt>
      <trkpt lat="47.12419" lon="5.5591">
        <ele>202</ele>
        <time>2018-03-21T08:07:05Z</time>
      </trkpt>
      <trkpt lat="47.12413" lon="5.5591">
        <ele>202</ele>
        <time>2018-03-21T08:07:09Z</time>
      </trkpt>
      <trkpt lat="47.12393" lon="5.55908">
        <ele>203</ele>
        <time>2018-03-21T08:07:25Z</time>
      </trkpt>
      <trkpt lat="47.12388" lon="5.55906">
        <ele>202</ele>
        <time>2018-03-21T08:07:29Z</time>
      </trkpt>
      <trkpt lat="47.12379" lon="5.55898">
        <ele>202</ele>
        <time>2018-03-21T08:07:37Z</time>
      </trkpt>
      <trkpt lat="47.12346" lon="5.55862">
        <ele>202</ele>
        <time>2018-03-21T08:08:09Z</time>
      </trkpt>
      <trkpt lat="47.12318" lon="5.55818">
        <ele>203</ele>
        <time>2018-03-21T08:08:41Z</time>
      </trkpt>
      <trkpt lat="47.12305" lon="5.55794">
        <ele>203</ele>
        <time>2018-03-21T08:08:58Z</time>
      </trkpt>
      <trkpt lat="47.12288" lon="5.55767">
        <ele>205</ele>
        <time>2018-03-21T08:09:18Z</time>
      </trkpt>
      <trkpt lat="47.1228" lon="5.55754">
        <ele>206</ele>
        <time>2018-03-21T08:09:26Z</time>
      </trkpt>
      <trkpt lat="47.1227" lon="5.5574">
        <ele>206</ele>
        <time>2018-03-21T08:09:39Z</time>
      </trkpt>
      <trkpt lat="47.12247" lon="5.557">
        <ele>207</ele>
        <time>2018-03-21T08:10:07Z</time>
      </trkpt>
      <trkpt lat="47.12233" lon="5.5568">
        <ele>207</ele>
        <time>2018-03-21T08:10:24Z</time>
      </trkpt>
      <trkpt lat="47.12222" lon="5.55663">
        <ele>207</ele>
        <time>2018-03-21T08:10:36Z</time>
      </trkpt>
      <trkpt lat="47.12192" lon="5.55619">
        <ele>207</ele>
        <time>2018-03-21T08:11:08Z</time>
      </trkpt>
      <trkpt lat="47.12163" lon="5.55579">
        <ele>207</ele>
        <time>2018-03-21T08:11:39Z</time>
      </trkpt>
      <trkpt lat="47.1216" lon="5.55574">
        <ele>207</ele>
        <time>2018-03-21T08:11:43Z</time>
      </trkpt>
      <trkpt lat="47.12129" lon="5.55531">
        <ele>207</ele>
        <time>2018-03-21T08:12:15Z</time>
      </trkpt>
      <trkpt lat="47.12098" lon="5.55485">
        <ele>207</ele>
        <time>2018-03-21T08:12:46Z</time>
      </trkpt>
      <trkpt lat="47.12065" lon="5.55437">
        <ele>208</ele>
        <time>2018-03-21T08:13:20Z</time>
      </trkpt>
      <trkpt lat="47.12033" lon="5.55389">
        <ele>208</ele>
        <time>2018-03-21T08:13:52Z</time>
      </trkpt>
      <trkpt lat="47.12002" lon="5.55344">
        <ele>210</ele>
        <time>2018-03-21T08:14:23Z</time>
      </trkpt>
      <trkpt lat="47.1197" lon="5.553">
        <ele>212</ele>
        <time>2018-03-21T08:14:55Z</time>
      </trkpt>
      <trkpt lat="47.11937" lon="5.55253">
        <ele>212</ele>
        <time>2018-03-21T08:15:28Z</time>
      </trkpt>
      <trkpt lat="47.11929" lon="5.55243">
        <ele>212</ele>
        <time>2018-03-21T08:15:36Z</time>
      </trkpt>
      <trkpt lat="47.11925" lon="5.55238">
        <ele>212</ele>
        <time>2018-03-21T08:15:40Z</time>
      </trkpt>
      <trkpt lat="47.11921" lon="5.55234">
        <ele>212</ele>
        <time>2018-03-21T08:15:44Z</time>
      </trkpt>
      <trkpt lat="47.11904" lon="5.55215">
        <ele>210</ele>
        <time>2018-03-21T08:16:00Z</time>
      </trkpt>
      <trkpt lat="47.11899" lon="5.5521">
        <ele>210</ele>
        <time>2018-03-21T08:16:04Z</time>
      </trkpt>
      <trkpt lat="47.11866" lon="5.55169">
        <ele>214</ele>
        <time>2018-03-21T08:16:33Z</time>
      </trkpt>
      <trkpt lat="47.11857" lon="5.55161">
        <ele>214</ele>
        <time>2018-03-21T08:16:41Z</time>
      </trkpt>
      <trkpt lat="47.11852" lon="5.55157">
        <ele>214</ele>
        <time>2018-03-21T08:16:45Z</time>
      </trkpt>
      <trkpt lat="47.11818" lon="5.55117">
        <ele>213</ele>
        <time>2018-03-21T08:17:19Z</time>
      </trkpt>
      <trkpt lat="47.11801" lon="5.55098">
        <ele>213</ele>
        <time>2018-03-21T08:17:35Z</time>
      </trkpt>
      <trkpt lat="47.11786" lon="5.5507">
        <ele>212</ele>
        <time>2018-03-21T08:17:55Z</time>
      </trkpt>
      <trkpt lat="47.11779" lon="5.55056">
        <ele>212</ele>
        <time>2018-03-21T08:18:04Z</time>
      </trkpt>
      <trkpt lat="47.11776" lon="5.55051">
        <ele>212</ele>
        <time>2018-03-21T08:18:07Z</time>
      </trkpt>
      <trkpt lat="47.11772" lon="5.55046">
        <ele>212</ele>
        <time>2018-03-21T08:18:11Z</time>
      </trkpt>
      <trkpt lat="47.1176" lon="5.55018">
        <ele>211</ele>
        <time>2018-03-21T08:18:27Z</time>
      </trkpt>
      <trkpt lat="47.1174" lon="5.54981">
        <ele>214</ele>
        <time>2018-03-21T08:18:50Z</time>
      </trkpt>
      <trkpt lat="47.11733" lon="5.54962">
        <ele>213</ele>
        <time>2018-03-21T08:19:02Z</time>
      </trkpt>
      <trkpt lat="47.1173" lon="5.54954">
        <ele>213</ele>
        <time>2018-03-21T08:19:06Z</time>
      </trkpt>
      <trkpt lat="47.11716" lon="5.54907">
        <ele>212</ele>
        <time>2018-03-21T08:19:33Z</time>
      </trkpt>
      <trkpt lat="47.11714" lon="5.549">
        <ele>212</ele>
        <time>2018-03-21T08:19:36Z</time>
      </trkpt>
      <trkpt lat="47.11712" lon="5.54894">
        <ele>212</ele>
        <time>2018-03-21T08:19:40Z</time>
      </trkpt>
      <trkpt lat="47.11704" lon="5.54873">
        <ele>213</ele>
        <time>2018-03-21T08:19:52Z</time>
      </trkpt>
      <trkpt lat="47.11703" lon="5.54866">
        <ele>212</ele>
        <time>2018-03-21T08:19:56Z</time>
      </trkpt>
      <trkpt lat="47.11699" lon="5.54853">
        <ele>211</ele>
        <time>2018-03-21T08:20:04Z</time>
      </trkpt>
      <trkpt lat="47.11686" lon="5.54811">
        <ele>211</ele>
        <time>2018-03-21T08:20:26Z</time>
      </trkpt>
      <trkpt lat="47.11683" lon="5.54796">
        <ele>212</ele>
        <time>2018-03-21T08:20:34Z</time>
      </trkpt>
      <trkpt lat="47.1168" lon="5.54788">
        <ele>211</ele>
        <time>2018-03-21T08:20:38Z</time>
      </trkpt>
      <trkpt lat="47.11678" lon="5.54781">
        <ele>211</ele>
        <time>2018-03-21T08:20:42Z</time>
      </trkpt>
      <trkpt lat="47.11668" lon="5.54746">
        <ele>210</ele>
        <time>2018-03-21T08:21:03Z</time>
      </trkpt>
      <trkpt lat="47.11669" lon="5.54739">
        <ele>210</ele>
        <time>2018-03-21T08:21:07Z</time>
      </trkpt>
      <trkpt lat="47.11666" lon="5.54733">
        <ele>210</ele>
        <time>2018-03-21T08:21:11Z</time>
      </trkpt>
      <trkpt lat="47.11663" lon="5.54729">
        <ele>211</ele>
        <time>2018-03-21T08:21:14Z</time>
      </trkpt>
      <trkpt lat="47.11657" lon="5.54725">
        <ele>211</ele>
        <time>2018-03-21T08:21:18Z</time>
      </trkpt>
      <trkpt lat="47.11654" lon="5.5472">
        <ele>211</ele>
        <time>2018-03-21T08:21:21Z</time>
      </trkpt>
      <trkpt lat="47.11637" lon="5.54703">
        <ele>212</ele>
        <time>2018-03-21T08:21:37Z</time>
      </trkpt>
      <trkpt lat="47.11637" lon="5.54696">
        <ele>212</ele>
        <time>2018-03-21T08:21:42Z</time>
      </trkpt>
      <trkpt lat="47.11635" lon="5.54689">
        <ele>213</ele>
        <time>2018-03-21T08:21:46Z</time>
      </trkpt>
      <trkpt lat="47.11631" lon="5.54684">
        <ele>213</ele>
        <time>2018-03-21T08:21:50Z</time>
      </trkpt>
      <trkpt lat="47.11621" lon="5.54669">
        <ele>213</ele>
        <time>2018-03-21T08:22:03Z</time>
      </trkpt>
      <trkpt lat="47.1161" lon="5.54645">
        <ele>216</ele>
        <time>2018-03-21T08:22:22Z</time>
      </trkpt>
      <trkpt lat="47.1159" lon="5.54619">
        <ele>220</ele>
        <time>2018-03-21T08:22:51Z</time>
      </trkpt>
      <trkpt lat="47.11576" lon="5.54598">
        <ele>221</ele>
        <time>2018-03-21T08:23:06Z</time>
      </trkpt>
      <trkpt lat="47.11553" lon="5.54571">
        <ele>223</ele>
        <time>2018-03-21T08:23:30Z</time>
      </trkpt>
      <trkpt lat="47.11534" lon="5.54542">
        <ele>224</ele>
        <time>2018-03-21T08:23:52Z</time>
      </trkpt>
      <trkpt lat="47.11526" lon="5.54534">
        <ele>224</ele>
        <time>2018-03-21T08:24:01Z</time>
      </trkpt>
      <trkpt lat="47.11492" lon="5.54518">
        <ele>221</ele>
        <time>2018-03-21T08:24:31Z</time>
      </trkpt>
      <trkpt lat="47.11477" lon="5.5451">
        <ele>222</ele>
        <time>2018-03-21T08:24:45Z</time>
      </trkpt>
      <trkpt lat="47.11463" lon="5.54502">
        <ele>222</ele>
        <time>2018-03-21T08:24:57Z</time>
      </trkpt>
      <trkpt lat="47.11454" lon="5.54497">
        <ele>222</ele>
        <time>2018-03-21T08:25:05Z</time>
      </trkpt>
      <trkpt lat="47.1145" lon="5.54493">
        <ele>222</ele>
        <time>2018-03-21T08:25:09Z</time>
      </trkpt>
      <trkpt lat="47.11413" lon="5.54471">
        <ele>221</ele>
        <time>2018-03-21T08:25:42Z</time>
      </trkpt>
      <trkpt lat="47.11408" lon="5.54469">
        <ele>221</ele>
        <time>2018-03-21T08:25:46Z</time>
      </trkpt>
      <trkpt lat="47.11398" lon="5.54466">
        <ele>222</ele>
        <time>2018-03-21T08:25:54Z</time>
      </trkpt>
      <trkpt lat="47.11393" lon="5.54467">
        <ele>222</ele>
        <time>2018-03-21T08:25:58Z</time>
      </trkpt>
      <trkpt lat="47.1136" lon="5.54499">
        <ele>224</ele>
        <time>2018-03-21T08:26:31Z</time>
      </trkpt>
      <trkpt lat="47.11357" lon="5.54504">
        <ele>224</ele>
        <time>2018-03-21T08:26:36Z</time>
      </trkpt>
      <trkpt lat="47.11346" lon="5.54518">
        <ele>225</ele>
        <time>2018-03-21T08:26:51Z</time>
      </trkpt>
      <trkpt lat="47.11333" lon="5.54533">
        <ele>226</ele>
        <time>2018-03-21T08:27:03Z</time>
      </trkpt>
      <trkpt lat="47.11325" lon="5.54541">
        <ele>227</ele>
        <time>2018-03-21T08:27:12Z</time>
      </trkpt>
      <trkpt lat="47.11317" lon="5.5455">
        <ele>227</ele>
        <time>2018-03-21T08:27:21Z</time>
      </trkpt>
      <trkpt lat="47.11313" lon="5.54563">
        <ele>228</ele>
        <time>2018-03-21T08:27:33Z</time>
      </trkpt>
      <trkpt lat="47.11296" lon="5.54574">
        <ele>227</ele>
        <time>2018-03-21T08:27:56Z</time>
      </trkpt>
      <trkpt lat="47.11283" lon="5.54583">
        <ele>225</ele>
        <time>2018-03-21T08:28:31Z</time>
      </trkpt>
      <trkpt lat="47.11265" lon="5.54591">
        <ele>224</ele>
        <time>2018-03-21T08:28:47Z</time>
      </trkpt>
      <trkpt lat="47.11257" lon="5.54598">
        <ele>224</ele>
        <time>2018-03-21T08:29:01Z</time>
      </trkpt>
      <trkpt lat="47.11247" lon="5.546">
        <ele>224</ele>
        <time>2018-03-21T08:29:12Z</time>
      </trkpt>
      <trkpt lat="47.11238" lon="5.546">
        <ele>225</ele>
        <time>2018-03-21T08:29:23Z</time>
      </trkpt>
      <trkpt lat="47.11232" lon="5.54601">
        <ele>224</ele>
        <time>2018-03-21T08:29:29Z</time>
      </trkpt>
      <trkpt lat="47.11209" lon="5.5461">
        <ele>224</ele>
        <time>2018-03-21T08:29:52Z</time>
      </trkpt>
      <trkpt lat="47.11205" lon="5.54608">
        <ele>224</ele>
        <time>2018-03-21T08:29:58Z</time>
      </trkpt>
      <trkpt lat="47.11195" lon="5.54613">
        <ele>223</ele>
        <time>2018-03-21T08:30:08Z</time>
      </trkpt>
      <trkpt lat="47.11191" lon="5.54614">
        <ele>223</ele>
        <time>2018-03-21T08:30:13Z</time>
      </trkpt>
      <trkpt lat="47.11186" lon="5.54613">
        <ele>223</ele>
        <time>2018-03-21T08:30:19Z</time>
      </trkpt>
      <trkpt lat="47.11181" lon="5.54612">
        <ele>223</ele>
        <time>2018-03-21T08:30:24Z</time>
      </trkpt>
      <trkpt lat="47.11177" lon="5.54617">
        <ele>223</ele>
        <time>2018-03-21T08:30:30Z</time>
      </trkpt>
      <trkpt lat="47.11168" lon="5.54614">
        <ele>222</ele>
        <time>2018-03-21T08:30:46Z</time>
      </trkpt>
      <trkpt lat="47.11164" lon="5.54618">
        <ele>222</ele>
        <time>2018-03-21T08:30:52Z</time>
      </trkpt>
      <trkpt lat="47.1115" lon="5.54631">
        <ele>224</ele>
        <time>2018-03-21T08:31:16Z</time>
      </trkpt>
      <trkpt lat="47.11146" lon="5.54634">
        <ele>224</ele>
        <time>2018-03-21T08:31:23Z</time>
      </trkpt>
      <trkpt lat="47.11141" lon="5.54637">
        <ele>224</ele>
        <time>2018-03-21T08:31:31Z</time>
      </trkpt>
      <trkpt lat="47.11128" lon="5.54648">
        <ele>224</ele>
        <time>2018-03-21T08:31:50Z</time>
      </trkpt>
      <trkpt lat="47.11124" lon="5.54648">
        <ele>223</ele>
        <time>2018-03-21T08:34:59Z</time>
      </trkpt>
      <trkpt lat="47.11117" lon="5.54646">
        <ele>222</ele>
        <time>2018-03-21T08:35:54Z</time>
      </trkpt>
      <trkpt lat="47.11113" lon="5.54643">
        <ele>222</ele>
        <time>2018-03-21T08:36:00Z</time>
      </trkpt>
      <trkpt lat="47.11109" lon="5.54638">
        <ele>224</ele>
        <time>2018-03-21T08:36:08Z</time>
      </trkpt>
      <trkpt lat="47.11104" lon="5.54639">
        <ele>225</ele>
        <time>2018-03-21T08:36:14Z</time>
      </trkpt>
      <trkpt lat="47.11085" lon="5.54636">
        <ele>226</ele>
        <time>2018-03-21T08:36:38Z</time>
      </trkpt>
      <trkpt lat="47.11073" lon="5.54635">
        <ele>228</ele>
        <time>2018-03-21T08:37:06Z</time>
      </trkpt>
      <trkpt lat="47.11069" lon="5.54632">
        <ele>228</ele>
        <time>2018-03-21T08:37:15Z</time>
      </trkpt>
      <trkpt lat="47.11064" lon="5.54634">
        <ele>227</ele>
        <time>2018-03-21T08:37:24Z</time>
      </trkpt>
      <trkpt lat="47.11056" lon="5.5463">
        <ele>228</ele>
        <time>2018-03-21T08:37:37Z</time>
      </trkpt>
      <trkpt lat="47.11052" lon="5.54627">
        <ele>228</ele>
        <time>2018-03-21T08:37:43Z</time>
      </trkpt>
      <trkpt lat="47.11047" lon="5.54627">
        <ele>229</ele>
        <time>2018-03-21T08:37:50Z</time>
      </trkpt>
      <trkpt lat="47.11042" lon="5.54627">
        <ele>229</ele>
        <time>2018-03-21T08:37:57Z</time>
      </trkpt>
      <trkpt lat="47.11033" lon="5.54622">
        <ele>229</ele>
        <time>2018-03-21T08:38:11Z</time>
      </trkpt>
      <trkpt lat="47.11028" lon="5.54622">
        <ele>230</ele>
        <time>2018-03-21T08:38:17Z</time>
      </trkpt>
      <trkpt lat="47.11023" lon="5.5462">
        <ele>230</ele>
        <time>2018-03-21T08:38:23Z</time>
      </trkpt>
      <trkpt lat="47.11019" lon="5.54616">
        <ele>230</ele>
        <time>2018-03-21T08:38:28Z</time>
      </trkpt>
      <trkpt lat="47.1101" lon="5.54611">
        <ele>229</ele>
        <time>2018-03-21T08:38:37Z</time>
      </trkpt>
      <trkpt lat="47.11001" lon="5.54611">
        <ele>228</ele>
        <time>2018-03-21T08:38:47Z</time>
      </trkpt>
      <trkpt lat="47.10993" lon="5.54603">
        <ele>228</ele>
        <time>2018-03-21T08:39:01Z</time>
      </trkpt>
      <trkpt lat="47.10967" lon="5.54588">
        <ele>228</ele>
        <time>2018-03-21T08:39:34Z</time>
      </trkpt>
      <trkpt lat="47.10962" lon="5.54584">
        <ele>228</ele>
        <time>2018-03-21T08:39:40Z</time>
      </trkpt>
      <trkpt lat="47.10954" lon="5.54575">
        <ele>227</ele>
        <time>2018-03-21T08:39:50Z</time>
      </trkpt>
      <trkpt lat="47.10949" lon="5.54572">
        <ele>227</ele>
        <time>2018-03-21T08:39:58Z</time>
      </trkpt>
      <trkpt lat="47.10941" lon="5.54564">
        <ele>226</ele>
        <time>2018-03-21T08:40:10Z</time>
      </trkpt>
      <trkpt lat="47.10936" lon="5.54561">
        <ele>225</ele>
        <time>2018-03-21T08:40:16Z</time>
      </trkpt>
      <trkpt lat="47.10925" lon="5.54539">
        <ele>222</ele>
        <time>2018-03-21T08:40:38Z</time>
      </trkpt>
      <trkpt lat="47.10922" lon="5.54534">
        <ele>221</ele>
        <time>2018-03-21T08:40:46Z</time>
      </trkpt>
      <trkpt lat="47.10916" lon="5.54527">
        <ele>222</ele>
        <time>2018-03-21T08:41:01Z</time>
      </trkpt>
      <trkpt lat="47.10913" lon="5.54522">
        <ele>222</ele>
        <time>2018-03-21T08:41:07Z</time>
      </trkpt>
      <trkpt lat="47.10909" lon="5.54519">
        <ele>222</ele>
        <time>2018-03-21T08:41:13Z</time>
      </trkpt>
      <trkpt lat="47.10904" lon="5.54515">
        <ele>222</ele>
        <time>2018-03-21T08:41:20Z</time>
      </trkpt>
      <trkpt lat="47.109" lon="5.54512">
        <ele>221</ele>
        <time>2018-03-21T08:41:25Z</time>
      </trkpt>
      <trkpt lat="47.10894" lon="5.545">
        <ele>221</ele>
        <time>2018-03-21T08:41:40Z</time>
      </trkpt>
      <trkpt lat="47.1089" lon="5.54491">
        <ele>221</ele>
        <time>2018-03-21T08:41:56Z</time>
      </trkpt>
      <trkpt lat="47.10883" lon="5.54482">
        <ele>222</ele>
        <time>2018-03-21T08:42:11Z</time>
      </trkpt>
      <trkpt lat="47.10874" lon="5.54476">
        <ele>222</ele>
        <time>2018-03-21T08:42:26Z</time>
      </trkpt>
      <trkpt lat="47.10869" lon="5.54476">
        <ele>223</ele>
        <time>2018-03-21T08:42:33Z</time>
      </trkpt>
      <trkpt lat="47.10865" lon="5.54473">
        <ele>222</ele>
        <time>2018-03-21T08:42:40Z</time>
      </trkpt>
      <trkpt lat="47.1086" lon="5.54472">
        <ele>222</ele>
        <time>2018-03-21T08:42:46Z</time>
      </trkpt>
      <trkpt lat="47.10855" lon="5.54472">
        <ele>222</ele>
        <time>2018-03-21T08:42:52Z</time>
      </trkpt>
      <trkpt lat="47.1085" lon="5.5447">
        <ele>223</ele>
        <time>2018-03-21T08:42:57Z</time>
      </trkpt>
      <trkpt lat="47.10841" lon="5.54466">
        <ele>222</ele>
        <time>2018-03-21T08:43:10Z</time>
      </trkpt>
      <trkpt lat="47.10837" lon="5.54462">
        <ele>221</ele>
        <time>2018-03-21T08:43:17Z</time>
      </trkpt>
      <trkpt lat="47.10835" lon="5.54455">
        <ele>221</ele>
        <time>2018-03-21T08:43:24Z</time>
      </trkpt>
      <trkpt lat="47.10837" lon="5.54441">
        <ele>222</ele>
        <time>2018-03-21T08:43:35Z</time>
      </trkpt>
      <trkpt lat="47.10834" lon="5.54435">
        <ele>221</ele>
        <time>2018-03-21T08:44:53Z</time>
      </trkpt>
      <trkpt lat="47.10831" lon="5.54429">
        <ele>222</ele>
        <time>2018-03-21T08:46:04Z</time>
      </trkpt>
      <trkpt lat="47.10827" lon="5.54425">
        <ele>223</ele>
        <time>2018-03-21T08:46:13Z</time>
      </trkpt>
      <trkpt lat="47.1082" lon="5.54421">
        <ele>223</ele>
        <time>2018-03-21T08:46:33Z</time>
      </trkpt>
      <trkpt lat="47.10816" lon="5.54417">
        <ele>223</ele>
        <time>2018-03-21T08:46:42Z</time>
      </trkpt>
      <trkpt lat="47.10815" lon="5.5441">
        <ele>223</ele>
        <time>2018-03-21T08:46:52Z</time>
      </trkpt>
      <trkpt lat="47.10812" lon="5.54404">
        <ele>223</ele>
        <time>2018-03-21T08:47:02Z</time>
      </trkpt>
      <trkpt lat="47.10814" lon="5.54398">
        <ele>222</ele>
        <time>2018-03-21T08:47:11Z</time>
      </trkpt>
      <trkpt lat="47.10809" lon="5.54397">
        <ele>222</ele>
        <time>2018-03-21T08:47:21Z</time>
      </trkpt>
      <trkpt lat="47.10801" lon="5.54395">
        <ele>221</ele>
        <time>2018-03-21T08:47:43Z</time>
      </trkpt>
      <trkpt lat="47.10798" lon="5.54388">
        <ele>220</ele>
        <time>2018-03-21T08:47:51Z</time>
      </trkpt>
      <trkpt lat="47.10793" lon="5.54384">
        <ele>221</ele>
        <time>2018-03-21T08:48:00Z</time>
      </trkpt>
      <trkpt lat="47.10788" lon="5.54388">
        <ele>220</ele>
        <time>2018-03-21T08:48:15Z</time>
      </trkpt>
      <trkpt lat="47.10785" lon="5.54384">
        <ele>220</ele>
        <time>2018-03-21T08:48:25Z</time>
      </trkpt>
      <trkpt lat="47.10779" lon="5.54383">
        <ele>220</ele>
        <time>2018-03-21T08:48:43Z</time>
      </trkpt>
      <trkpt lat="47.10767" lon="5.54376">
        <ele>218</ele>
        <time>2018-03-21T08:49:14Z</time>
      </trkpt>
      <trkpt lat="47.10764" lon="5.54371">
        <ele>218</ele>
        <time>2018-03-21T08:49:21Z</time>
      </trkpt>
      <trkpt lat="47.10753" lon="5.54361">
        <ele>218</ele>
        <time>2018-03-21T08:49:40Z</time>
      </trkpt>
      <trkpt lat="47.10749" lon="5.54356">
        <ele>218</ele>
        <time>2018-03-21T08:49:49Z</time>
      </trkpt>
      <trkpt lat="47.10745" lon="5.54354">
        <ele>218</ele>
        <time>2018-03-21T08:49:58Z</time>
      </trkpt>
      <trkpt lat="47.10741" lon="5.5435">
        <ele>218</ele>
        <time>2018-03-21T08:50:07Z</time>
      </trkpt>
      <trkpt lat="47.10737" lon="5.54346">
        <ele>218</ele>
        <time>2018-03-21T08:50:14Z</time>
      </trkpt>
      <trkpt lat="47.10728" lon="5.5434">
        <ele>219</ele>
        <time>2018-03-21T08:50:26Z</time>
      </trkpt>
      <trkpt lat="47.10723" lon="5.54337">
        <ele>219</ele>
        <time>2018-03-21T08:50:34Z</time>
      </trkpt>
      <trkpt lat="47.1072" lon="5.54332">
        <ele>219</ele>
        <time>2018-03-21T08:50:41Z</time>
      </trkpt>
      <trkpt lat="47.10711" lon="5.54327">
        <ele>220</ele>
        <time>2018-03-21T08:50:54Z</time>
      </trkpt>
      <trkpt lat="47.10701" lon="5.54317">
        <ele>219</ele>
        <time>2018-03-21T08:51:13Z</time>
      </trkpt>
      <trkpt lat="47.10693" lon="5.54308">
        <ele>219</ele>
        <time>2018-03-21T08:51:26Z</time>
      </trkpt>
      <trkpt lat="47.10684" lon="5.54306">
        <ele>219</ele>
        <time>2018-03-21T08:51:39Z</time>
      </trkpt>
      <trkpt lat="47.10677" lon="5.54309">
        <ele>219</ele>
        <time>2018-03-21T08:51:56Z</time>
      </trkpt>
      <trkpt lat="47.10672" lon="5.54305">
        <ele>218</ele>
        <time>2018-03-21T08:52:08Z</time>
      </trkpt>
      <trkpt lat="47.10669" lon="5.54298">
        <ele>218</ele>
        <time>2018-03-21T08:52:23Z</time>
      </trkpt>
      <trkpt lat="47.10666" lon="5.54291">
        <ele>217</ele>
        <time>2018-03-21T08:52:41Z</time>
      </trkpt>
      <trkpt lat="47.10655" lon="5.54288">
        <ele>218</ele>
        <time>2018-03-21T08:53:05Z</time>
      </trkpt>
      <trkpt lat="47.10646" lon="5.54282">
        <ele>218</ele>
        <time>2018-03-21T08:53:20Z</time>
      </trkpt>
      <trkpt lat="47.10641" lon="5.54274">
        <ele>218</ele>
        <time>2018-03-21T08:53:36Z</time>
      </trkpt>
      <trkpt lat="47.10631" lon="5.54271">
        <ele>218</ele>
        <time>2018-03-21T08:53:55Z</time>
      </trkpt>
      <trkpt lat="47.1062" lon="5.54263">
        <ele>219</ele>
        <time>2018-03-21T08:54:17Z</time>
      </trkpt>
      <trkpt lat="47.10617" lon="5.54258">
        <ele>219</ele>
        <time>2018-03-21T08:54:23Z</time>
      </trkpt>
      <trkpt lat="47.10613" lon="5.54245">
        <ele>219</ele>
        <time>2018-03-21T08:54:36Z</time>
      </trkpt>
      <trkpt lat="47.10609" lon="5.5424">
        <ele>219</ele>
        <time>2018-03-21T08:54:42Z</time>
      </trkpt>
      <trkpt lat="47.106" lon="5.54234">
        <ele>218</ele>
        <time>2018-03-21T08:54:55Z</time>
      </trkpt>
      <trkpt lat="47.10598" lon="5.54226">
        <ele>218</ele>
        <time>2018-03-21T08:55:09Z</time>
      </trkpt>
      <trkpt lat="47.10589" lon="5.54227">
        <ele>216</ele>
        <time>2018-03-21T08:57:01Z</time>
      </trkpt>
      <trkpt lat="47.10585" lon="5.54224">
        <ele>215</ele>
        <time>2018-03-21T08:57:08Z</time>
      </trkpt>
      <trkpt lat="47.10565" lon="5.54207">
        <ele>216</ele>
        <time>2018-03-21T08:57:31Z</time>
      </trkpt>
      <trkpt lat="47.10547" lon="5.54181">
        <ele>216</ele>
        <time>2018-03-21T08:57:57Z</time>
      </trkpt>
      <trkpt lat="47.10545" lon="5.54175">
        <ele>216</ele>
        <time>2018-03-21T08:58:02Z</time>
      </trkpt>
      <trkpt lat="47.10537" lon="5.54166">
        <ele>217</ele>
        <time>2018-03-21T08:58:11Z</time>
      </trkpt>
      <trkpt lat="47.10534" lon="5.5416">
        <ele>217</ele>
        <time>2018-03-21T08:58:16Z</time>
      </trkpt>
      <trkpt lat="47.1052" lon="5.54148">
        <ele>216</ele>
        <time>2018-03-21T08:58:31Z</time>
      </trkpt>
      <trkpt lat="47.10505" lon="5.54145">
        <ele>215</ele>
        <time>2018-03-21T08:59:46Z</time>
      </trkpt>
      <trkpt lat="47.10493" lon="5.54144">
        <ele>214</ele>
        <time>2018-03-21T09:00:01Z</time>
      </trkpt>
      <trkpt lat="47.10467" lon="5.54136">
        <ele>212</ele>
        <time>2018-03-21T09:00:19Z</time>
      </trkpt>
      <trkpt lat="47.10463" lon="5.54132">
        <ele>212</ele>
        <time>2018-03-21T09:00:22Z</time>
      </trkpt>
      <trkpt lat="47.10446" lon="5.54129">
        <ele>213</ele>
        <time>2018-03-21T09:00:35Z</time>
      </trkpt>
      <trkpt lat="47.10421" lon="5.54137">
        <ele>212</ele>
        <time>2018-03-21T09:00:59Z</time>
      </trkpt>
      <trkpt lat="47.10384" lon="5.54136">
        <ele>211</ele>
        <time>2018-03-21T09:01:30Z</time>
      </trkpt>
      <trkpt lat="47.10348" lon="5.54143">
        <ele>211</ele>
        <time>2018-03-21T09:02:00Z</time>
      </trkpt>
      <trkpt lat="47.10343" lon="5.54142">
        <ele>211</ele>
        <time>2018-03-21T09:02:04Z</time>
      </trkpt>
      <trkpt lat="47.10333" lon="5.54136">
        <ele>211</ele>
        <time>2018-03-21T09:02:12Z</time>
      </trkpt>
      <trkpt lat="47.10315" lon="5.54111">
        <ele>212</ele>
        <time>2018-03-21T09:02:36Z</time>
      </trkpt>
      <trkpt lat="47.1031" lon="5.54108">
        <ele>212</ele>
        <time>2018-03-21T09:02:41Z</time>
      </trkpt>
      <trkpt lat="47.10301" lon="5.54113">
        <ele>212</ele>
        <time>2018-03-21T09:02:50Z</time>
      </trkpt>
      <trkpt lat="47.10292" lon="5.54119">
        <ele>212</ele>
        <time>2018-03-21T09:02:58Z</time>
      </trkpt>
      <trkpt lat="47.10277" lon="5.54123">
        <ele>213</ele>
        <time>2018-03-21T09:03:11Z</time>
      </trkpt>
      <trkpt lat="47.10272" lon="5.54121">
        <ele>213</ele>
        <time>2018-03-21T09:03:16Z</time>
      </trkpt>
      <trkpt lat="47.10267" lon="5.54124">
        <ele>213</ele>
        <time>2018-03-21T09:03:20Z</time>
      </trkpt>
      <trkpt lat="47.10264" lon="5.54128">
        <ele>213</ele>
        <time>2018-03-21T09:03:24Z</time>
      </trkpt>
      <trkpt lat="47.10261" lon="5.54135">
        <ele>214</ele>
        <time>2018-03-21T09:03:30Z</time>
      </trkpt>
      <trkpt lat="47.10253" lon="5.54143">
        <ele>214</ele>
        <time>2018-03-21T09:03:38Z</time>
      </trkpt>
      <trkpt lat="47.10249" lon="5.54148">
        <ele>214</ele>
        <time>2018-03-21T09:03:43Z</time>
      </trkpt>
      <trkpt lat="47.10245" lon="5.54152">
        <ele>214</ele>
        <time>2018-03-21T09:03:48Z</time>
      </trkpt>
      <trkpt lat="47.10241" lon="5.54158">
        <ele>213</ele>
        <time>2018-03-21T09:03:53Z</time>
      </trkpt>
      <trkpt lat="47.10231" lon="5.54154">
        <ele>213</ele>
        <time>2018-03-21T09:04:03Z</time>
      </trkpt>
      <trkpt lat="47.10226" lon="5.54148">
        <ele>214</ele>
        <time>2018-03-21T09:04:08Z</time>
      </trkpt>
      <trkpt lat="47.10223" lon="5.54143">
        <ele>214</ele>
        <time>2018-03-21T09:04:13Z</time>
      </trkpt>
      <trkpt lat="47.10219" lon="5.54138">
        <ele>214</ele>
        <time>2018-03-21T09:04:18Z</time>
      </trkpt>
      <trkpt lat="47.10196" lon="5.54096">
        <ele>215</ele>
        <time>2018-03-21T09:04:49Z</time>
      </trkpt>
      <trkpt lat="47.10193" lon="5.54089">
        <ele>215</ele>
        <time>2018-03-21T09:04:54Z</time>
      </trkpt>
      <trkpt lat="47.10192" lon="5.54082">
        <ele>215</ele>
        <time>2018-03-21T09:05:00Z</time>
      </trkpt>
      <trkpt lat="47.1019" lon="5.54076">
        <ele>215</ele>
        <time>2018-03-21T09:05:09Z</time>
      </trkpt>
      <trkpt lat="47.10186" lon="5.54076">
        <ele>214</ele>
        <time>2018-03-21T09:05:13Z</time>
      </trkpt>
      <trkpt lat="47.10165" lon="5.54068">
        <ele>213</ele>
        <time>2018-03-21T09:05:30Z</time>
      </trkpt>
      <trkpt lat="47.10157" lon="5.54061">
        <ele>213</ele>
        <time>2018-03-21T09:05:38Z</time>
      </trkpt>
      <trkpt lat="47.10143" lon="5.54053">
        <ele>213</ele>
        <time>2018-03-21T09:05:52Z</time>
      </trkpt>
      <trkpt lat="47.10129" lon="5.54041">
        <ele>212</ele>
        <time>2018-03-21T09:06:05Z</time>
      </trkpt>
      <trkpt lat="47.10111" lon="5.54021">
        <ele>212</ele>
        <time>2018-03-21T09:06:21Z</time>
      </trkpt>
      <trkpt lat="47.10098" lon="5.5401">
        <ele>211</ele>
        <time>2018-03-21T09:06:34Z</time>
      </trkpt>
      <trkpt lat="47.10065" lon="5.53976">
        <ele>212</ele>
        <time>2018-03-21T09:07:06Z</time>
      </trkpt>
      <trkpt lat="47.10057" lon="5.53967">
        <ele>212</ele>
        <time>2018-03-21T09:07:15Z</time>
      </trkpt>
      <trkpt lat="47.10048" lon="5.53959">
        <ele>212</ele>
        <time>2018-03-21T09:07:23Z</time>
      </trkpt>
      <trkpt lat="47.10039" lon="5.53953">
        <ele>213</ele>
        <time>2018-03-21T09:07:32Z</time>
      </trkpt>
      <trkpt lat="47.10006" lon="5.53919">
        <ele>213</ele>
        <time>2018-03-21T09:08:05Z</time>
      </trkpt>
      <trkpt lat="47.0997" lon="5.53883">
        <ele>214</ele>
        <time>2018-03-21T09:08:40Z</time>
      </trkpt>
      <trkpt lat="47.09947" lon="5.5386">
        <ele>213</ele>
        <time>2018-03-21T09:09:16Z</time>
      </trkpt>
      <trkpt lat="47.09929" lon="5.53842">
        <ele>213</ele>
        <time>2018-03-21T09:09:32Z</time>
      </trkpt>
      <trkpt lat="47.09889" lon="5.53834">
        <ele>213</ele>
        <time>2018-03-21T09:10:05Z</time>
      </trkpt>
      <trkpt lat="47.0986" lon="5.5382">
        <ele>212</ele>
        <time>2018-03-21T09:10:29Z</time>
      </trkpt>
      <trkpt lat="47.09834" lon="5.538">
        <ele>211</ele>
        <time>2018-03-21T09:10:53Z</time>
      </trkpt>
      <trkpt lat="47.0983" lon="5.53797">
        <ele>212</ele>
        <time>2018-03-21T09:10:57Z</time>
      </trkpt>
      <trkpt lat="47.09816" lon="5.53784">
        <ele>212</ele>
        <time>2018-03-21T09:11:09Z</time>
      </trkpt>
      <trkpt lat="47.09812" lon="5.53781">
        <ele>212</ele>
        <time>2018-03-21T09:11:13Z</time>
      </trkpt>
      <trkpt lat="47.09794" lon="5.53764">
        <ele>211</ele>
        <time>2018-03-21T09:11:30Z</time>
      </trkpt>
      <trkpt lat="47.09781" lon="5.53755">
        <ele>209</ele>
        <time>2018-03-21T09:11:41Z</time>
      </trkpt>
      <trkpt lat="47.09777" lon="5.53754">
        <ele>209</ele>
        <time>2018-03-21T09:11:45Z</time>
      </trkpt>
      <trkpt lat="47.09766" lon="5.53756">
        <ele>208</ele>
        <time>2018-03-21T09:11:53Z</time>
      </trkpt>
      <trkpt lat="47.09762" lon="5.5376">
        <ele>208</ele>
        <time>2018-03-21T09:11:58Z</time>
      </trkpt>
      <trkpt lat="47.09759" lon="5.53775">
        <ele>206</ele>
        <time>2018-03-21T09:12:06Z</time>
      </trkpt>
      <trkpt lat="47.0976" lon="5.53782">
        <ele>206</ele>
        <time>2018-03-21T09:12:11Z</time>
      </trkpt>
      <trkpt lat="47.09763" lon="5.53789">
        <ele>206</ele>
        <time>2018-03-21T09:12:16Z</time>
      </trkpt>
      <trkpt lat="47.09767" lon="5.53803">
        <ele>206</ele>
        <time>2018-03-21T09:12:24Z</time>
      </trkpt>
      <trkpt lat="47.09774" lon="5.5382">
        <ele>206</ele>
        <time>2018-03-21T09:12:35Z</time>
      </trkpt>
      <trkpt lat="47.09776" lon="5.53826">
        <ele>206</ele>
        <time>2018-03-21T09:12:38Z</time>
      </trkpt>
      <trkpt lat="47.09781" lon="5.5384">
        <ele>206</ele>
        <time>2018-03-21T09:12:47Z</time>
      </trkpt>
      <trkpt lat="47.0979" lon="5.53881">
        <ele>207</ele>
        <time>2018-03-21T09:19:07Z</time>
      </trkpt>
      <trkpt lat="47.09793" lon="5.53889">
        <ele>207</ele>
        <time>2018-03-21T09:19:11Z</time>
      </trkpt>
      <trkpt lat="47.0981" lon="5.53944">
        <ele>206</ele>
        <time>2018-03-21T09:19:42Z</time>
      </trkpt>
      <trkpt lat="47.09815" lon="5.53957">
        <ele>206</ele>
        <time>2018-03-21T09:19:50Z</time>
      </trkpt>
      <trkpt lat="47.09817" lon="5.53964">
        <ele>207</ele>
        <time>2018-03-21T09:19:55Z</time>
      </trkpt>
      <trkpt lat="47.09839" lon="5.54018">
        <ele>206</ele>
        <time>2018-03-21T09:20:28Z</time>
      </trkpt>
      <trkpt lat="47.09863" lon="5.54074">
        <ele>206</ele>
        <time>2018-03-21T09:21:00Z</time>
      </trkpt>
      <trkpt lat="47.09888" lon="5.54121">
        <ele>205</ele>
        <time>2018-03-21T09:21:31Z</time>
      </trkpt>
      <trkpt lat="47.09905" lon="5.54143">
        <ele>205</ele>
        <time>2018-03-21T09:21:47Z</time>
      </trkpt>
      <trkpt lat="47.09912" lon="5.54155">
        <ele>205</ele>
        <time>2018-03-21T09:21:55Z</time>
      </trkpt>
      <trkpt lat="47.09945" lon="5.54192">
        <ele>205</ele>
        <time>2018-03-21T09:22:28Z</time>
      </trkpt>
      <trkpt lat="47.09953" lon="5.542">
        <ele>205</ele>
        <time>2018-03-21T09:22:36Z</time>
      </trkpt>
      <trkpt lat="47.09955" lon="5.54207">
        <ele>205</ele>
        <time>2018-03-21T09:22:41Z</time>
      </trkpt>
      <trkpt lat="47.09959" lon="5.54213">
        <ele>205</ele>
        <time>2018-03-21T09:22:45Z</time>
      </trkpt>
      <trkpt lat="47.09964" lon="5.54217">
        <ele>206</ele>
        <time>2018-03-21T09:22:49Z</time>
      </trkpt>
      <trkpt lat="47.09969" lon="5.5422">
        <ele>206</ele>
        <time>2018-03-21T09:22:53Z</time>
      </trkpt>
      <trkpt lat="47.1001" lon="5.54255">
        <ele>205</ele>
        <time>2018-03-21T09:23:27Z</time>
      </trkpt>
      <trkpt lat="47.10014" lon="5.54258">
        <ele>205</ele>
        <time>2018-03-21T09:23:31Z</time>
      </trkpt>
      <trkpt lat="47.10046" lon="5.54288">
        <ele>205</ele>
        <time>2018-03-21T09:23:58Z</time>
      </trkpt>
      <trkpt lat="47.10068" lon="5.54301">
        <ele>206</ele>
        <time>2018-03-21T09:24:30Z</time>
      </trkpt>
      <trkpt lat="47.10108" lon="5.54325">
        <ele>207</ele>
        <time>2018-03-21T09:25:02Z</time>
      </trkpt>
      <trkpt lat="47.10133" lon="5.54338">
        <ele>206</ele>
        <time>2018-03-21T09:25:22Z</time>
      </trkpt>
      <trkpt lat="47.10138" lon="5.54338">
        <ele>206</ele>
        <time>2018-03-21T09:25:26Z</time>
      </trkpt>
      <trkpt lat="47.10178" lon="5.54354">
        <ele>206</ele>
        <time>2018-03-21T09:26:00Z</time>
      </trkpt>
      <trkpt lat="47.10198" lon="5.54359">
        <ele>207</ele>
        <time>2018-03-21T09:26:14Z</time>
      </trkpt>
      <trkpt lat="47.10208" lon="5.54366">
        <ele>207</ele>
        <time>2018-03-21T09:26:22Z</time>
      </trkpt>
      <trkpt lat="47.1025" lon="5.54381">
        <ele>207</ele>
        <time>2018-03-21T09:26:55Z</time>
      </trkpt>
      <trkpt lat="47.10292" lon="5.54398">
        <ele>208</ele>
        <time>2018-03-21T09:27:26Z</time>
      </trkpt>
      <trkpt lat="47.10302" lon="5.54403">
        <ele>208</ele>
        <time>2018-03-21T09:27:34Z</time>
      </trkpt>
      <trkpt lat="47.10317" lon="5.54409">
        <ele>207</ele>
        <time>2018-03-21T09:27:46Z</time>
      </trkpt>
      <trkpt lat="47.10355" lon="5.54423">
        <ele>207</ele>
        <time>2018-03-21T09:28:20Z</time>
      </trkpt>
      <trkpt lat="47.1038" lon="5.54434">
        <ele>207</ele>
        <time>2018-03-21T09:28:43Z</time>
      </trkpt>
      <trkpt lat="47.10396" lon="5.54437">
        <ele>207</ele>
        <time>2018-03-21T09:28:54Z</time>
      </trkpt>
      <trkpt lat="47.10436" lon="5.54456">
        <ele>208</ele>
        <time>2018-03-21T09:29:28Z</time>
      </trkpt>
      <trkpt lat="47.10477" lon="5.54472">
        <ele>208</ele>
        <time>2018-03-21T09:29:59Z</time>
      </trkpt>
      <trkpt lat="47.10521" lon="5.54489">
        <ele>208</ele>
        <time>2018-03-21T09:30:33Z</time>
      </trkpt>
      <trkpt lat="47.10556" lon="5.54504">
        <ele>208</ele>
        <time>2018-03-21T09:31:00Z</time>
      </trkpt>
      <trkpt lat="47.10594" lon="5.54519">
        <ele>207</ele>
        <time>2018-03-21T09:31:33Z</time>
      </trkpt>
      <trkpt lat="47.10625" lon="5.54532">
        <ele>207</ele>
        <time>2018-03-21T09:31:55Z</time>
      </trkpt>
      <trkpt lat="47.10633" lon="5.54538">
        <ele>207</ele>
        <time>2018-03-21T09:32:03Z</time>
      </trkpt>
      <trkpt lat="47.10675" lon="5.54554">
        <ele>208</ele>
        <time>2018-03-21T09:32:33Z</time>
      </trkpt>
      <trkpt lat="47.1072" lon="5.54571">
        <ele>208</ele>
        <time>2018-03-21T09:33:07Z</time>
      </trkpt>
      <trkpt lat="47.10762" lon="5.54586">
        <ele>207</ele>
        <time>2018-03-21T09:33:38Z</time>
      </trkpt>
      <trkpt lat="47.10802" lon="5.54601">
        <ele>206</ele>
        <time>2018-03-21T09:34:09Z</time>
      </trkpt>
      <trkpt lat="47.10848" lon="5.54622">
        <ele>207</ele>
        <time>2018-03-21T09:34:43Z</time>
      </trkpt>
      <trkpt lat="47.10893" lon="5.54639">
        <ele>207</ele>
        <time>2018-03-21T09:35:16Z</time>
      </trkpt>
      <trkpt lat="47.10913" lon="5.54648">
        <ele>207</ele>
        <time>2018-03-21T09:35:30Z</time>
      </trkpt>
      <trkpt lat="47.10953" lon="5.54659">
        <ele>206</ele>
        <time>2018-03-21T09:36:01Z</time>
      </trkpt>
      <trkpt lat="47.10958" lon="5.54662">
        <ele>206</ele>
        <time>2018-03-21T09:36:05Z</time>
      </trkpt>
      <trkpt lat="47.10962" lon="5.54666">
        <ele>206</ele>
        <time>2018-03-21T09:36:09Z</time>
      </trkpt>
      <trkpt lat="47.10967" lon="5.54669">
        <ele>206</ele>
        <time>2018-03-21T09:36:13Z</time>
      </trkpt>
      <trkpt lat="47.1101" lon="5.54684">
        <ele>206</ele>
        <time>2018-03-21T09:36:45Z</time>
      </trkpt>
      <trkpt lat="47.11037" lon="5.54694">
        <ele>207</ele>
        <time>2018-03-21T09:37:05Z</time>
      </trkpt>
      <trkpt lat="47.11043" lon="5.54696">
        <ele>207</ele>
        <time>2018-03-21T09:37:09Z</time>
      </trkpt>
      <trkpt lat="47.11064" lon="5.54704">
        <ele>208</ele>
        <time>2018-03-21T09:37:25Z</time>
      </trkpt>
      <trkpt lat="47.11069" lon="5.54706">
        <ele>209</ele>
        <time>2018-03-21T09:37:29Z</time>
      </trkpt>
      <trkpt lat="47.11074" lon="5.54707">
        <ele>209</ele>
        <time>2018-03-21T09:37:33Z</time>
      </trkpt>
      <trkpt lat="47.11078" lon="5.5471">
        <ele>209</ele>
        <time>2018-03-21T09:37:36Z</time>
      </trkpt>
      <trkpt lat="47.11084" lon="5.54712">
        <ele>209</ele>
        <time>2018-03-21T09:37:39Z</time>
      </trkpt>
      <trkpt lat="47.11094" lon="5.54716">
        <ele>209</ele>
        <time>2018-03-21T09:37:47Z</time>
      </trkpt>
      <trkpt lat="47.11099" lon="5.54716">
        <ele>210</ele>
        <time>2018-03-21T09:37:51Z</time>
      </trkpt>
      <trkpt lat="47.11115" lon="5.54722">
        <ele>209</ele>
        <time>2018-03-21T09:38:03Z</time>
      </trkpt>
      <trkpt lat="47.11121" lon="5.54723">
        <ele>208</ele>
        <time>2018-03-21T09:38:08Z</time>
      </trkpt>
      <trkpt lat="47.11125" lon="5.54726">
        <ele>208</ele>
        <time>2018-03-21T09:38:12Z</time>
      </trkpt>
      <trkpt lat="47.11162" lon="5.54745">
        <ele>208</ele>
        <time>2018-03-21T09:38:40Z</time>
      </trkpt>
      <trkpt lat="47.11191" lon="5.54755">
        <ele>209</ele>
        <time>2018-03-21T09:39:01Z</time>
      </trkpt>
      <trkpt lat="47.11195" lon="5.54756">
        <ele>208</ele>
        <time>2018-03-21T09:39:04Z</time>
      </trkpt>
      <trkpt lat="47.1122" lon="5.54765">
        <ele>208</ele>
        <time>2018-03-21T09:39:23Z</time>
      </trkpt>
      <trkpt lat="47.11226" lon="5.54767">
        <ele>208</ele>
        <time>2018-03-21T09:39:27Z</time>
      </trkpt>
      <trkpt lat="47.11231" lon="5.5477">
        <ele>208</ele>
        <time>2018-03-21T09:39:31Z</time>
      </trkpt>
      <trkpt lat="47.11252" lon="5.54778">
        <ele>207</ele>
        <time>2018-03-21T09:39:48Z</time>
      </trkpt>
      <trkpt lat="47.11261" lon="5.54783">
        <ele>208</ele>
        <time>2018-03-21T09:39:55Z</time>
      </trkpt>
      <trkpt lat="47.11272" lon="5.54789">
        <ele>209</ele>
        <time>2018-03-21T09:40:06Z</time>
      </trkpt>
      <trkpt lat="47.11276" lon="5.54791">
        <ele>209</ele>
        <time>2018-03-21T09:40:09Z</time>
      </trkpt>
      <trkpt lat="47.11281" lon="5.54791">
        <ele>209</ele>
        <time>2018-03-21T09:40:12Z</time>
      </trkpt>
      <trkpt lat="47.11302" lon="5.54801">
        <ele>210</ele>
        <time>2018-03-21T09:40:27Z</time>
      </trkpt>
      <trkpt lat="47.11307" lon="5.54802">
        <ele>210</ele>
        <time>2018-03-21T09:40:31Z</time>
      </trkpt>
      <trkpt lat="47.11318" lon="5.54804">
        <ele>209</ele>
        <time>2018-03-21T09:40:39Z</time>
      </trkpt>
      <trkpt lat="47.11323" lon="5.54808">
        <ele>209</ele>
        <time>2018-03-21T09:40:43Z</time>
      </trkpt>
      <trkpt lat="47.1135" lon="5.5483">
        <ele>208</ele>
        <time>2018-03-21T09:41:06Z</time>
      </trkpt>
      <trkpt lat="47.11355" lon="5.54834">
        <ele>208</ele>
        <time>2018-03-21T09:41:10Z</time>
      </trkpt>
      <trkpt lat="47.11388" lon="5.54873">
        <ele>209</ele>
        <time>2018-03-21T09:41:41Z</time>
      </trkpt>
      <trkpt lat="47.11409" lon="5.54898">
        <ele>209</ele>
        <time>2018-03-21T09:42:01Z</time>
      </trkpt>
      <trkpt lat="47.11416" lon="5.5491">
        <ele>209</ele>
        <time>2018-03-21T09:42:08Z</time>
      </trkpt>
      <trkpt lat="47.11425" lon="5.54919">
        <ele>209</ele>
        <time>2018-03-21T09:42:16Z</time>
      </trkpt>
      <trkpt lat="47.11429" lon="5.54924">
        <ele>209</ele>
        <time>2018-03-21T09:42:20Z</time>
      </trkpt>
      <trkpt lat="47.11442" lon="5.54936">
        <ele>210</ele>
        <time>2018-03-21T09:42:32Z</time>
      </trkpt>
      <trkpt lat="47.11444" lon="5.54941">
        <ele>209</ele>
        <time>2018-03-21T09:42:35Z</time>
      </trkpt>
      <trkpt lat="47.11451" lon="5.54954">
        <ele>209</ele>
        <time>2018-03-21T09:42:43Z</time>
      </trkpt>
      <trkpt lat="47.11457" lon="5.54966">
        <ele>209</ele>
        <time>2018-03-21T09:42:50Z</time>
      </trkpt>
      <trkpt lat="47.11461" lon="5.54972">
        <ele>209</ele>
        <time>2018-03-21T09:42:54Z</time>
      </trkpt>
      <trkpt lat="47.11464" lon="5.54977">
        <ele>209</ele>
        <time>2018-03-21T09:42:58Z</time>
      </trkpt>
      <trkpt lat="47.11472" lon="5.54987">
        <ele>210</ele>
        <time>2018-03-21T09:43:06Z</time>
      </trkpt>
      <trkpt lat="47.11477" lon="5.54991">
        <ele>210</ele>
        <time>2018-03-21T09:43:10Z</time>
      </trkpt>
      <trkpt lat="47.11481" lon="5.54995">
        <ele>210</ele>
        <time>2018-03-21T09:43:14Z</time>
      </trkpt>
      <trkpt lat="47.11498" lon="5.55022">
        <ele>208</ele>
        <time>2018-03-21T09:43:32Z</time>
      </trkpt>
      <trkpt lat="47.11518" lon="5.55048">
        <ele>208</ele>
        <time>2018-03-21T09:43:52Z</time>
      </trkpt>
      <trkpt lat="47.1152" lon="5.55056">
        <ele>209</ele>
        <time>2018-03-21T09:43:58Z</time>
      </trkpt>
      <trkpt lat="47.11527" lon="5.55067">
        <ele>209</ele>
        <time>2018-03-21T09:44:06Z</time>
      </trkpt>
      <trkpt lat="47.11536" lon="5.55076">
        <ele>209</ele>
        <time>2018-03-21T09:44:14Z</time>
      </trkpt>
      <trkpt lat="47.11544" lon="5.55086">
        <ele>210</ele>
        <time>2018-03-21T09:44:21Z</time>
      </trkpt>
      <trkpt lat="47.11555" lon="5.55106">
        <ele>210</ele>
        <time>2018-03-21T09:44:33Z</time>
      </trkpt>
      <trkpt lat="47.11565" lon="5.55114">
        <ele>210</ele>
        <time>2018-03-21T09:44:41Z</time>
      </trkpt>
      <trkpt lat="47.11567" lon="5.55122">
        <ele>209</ele>
        <time>2018-03-21T09:44:45Z</time>
      </trkpt>
      <trkpt lat="47.1157" lon="5.55127">
        <ele>209</ele>
        <time>2018-03-21T09:44:48Z</time>
      </trkpt>
      <trkpt lat="47.11601" lon="5.5517">
        <ele>211</ele>
        <time>2018-03-21T09:45:20Z</time>
      </trkpt>
      <trkpt lat="47.11618" lon="5.55188">
        <ele>211</ele>
        <time>2018-03-21T09:45:35Z</time>
      </trkpt>
      <trkpt lat="47.11621" lon="5.55194">
        <ele>211</ele>
        <time>2018-03-21T09:45:39Z</time>
      </trkpt>
      <trkpt lat="47.11627" lon="5.55205">
        <ele>210</ele>
        <time>2018-03-21T09:45:46Z</time>
      </trkpt>
      <trkpt lat="47.11643" lon="5.55229">
        <ele>210</ele>
        <time>2018-03-21T09:46:02Z</time>
      </trkpt>
      <trkpt lat="47.11652" lon="5.55247">
        <ele>209</ele>
        <time>2018-03-21T09:46:13Z</time>
      </trkpt>
      <trkpt lat="47.11673" lon="5.5527">
        <ele>210</ele>
        <time>2018-03-21T09:46:31Z</time>
      </trkpt>
      <trkpt lat="47.11682" lon="5.55277">
        <ele>210</ele>
        <time>2018-03-21T09:46:39Z</time>
      </trkpt>
      <trkpt lat="47.11697" lon="5.55302">
        <ele>211</ele>
        <time>2018-03-21T09:46:55Z</time>
      </trkpt>
      <trkpt lat="47.11705" lon="5.5531">
        <ele>211</ele>
        <time>2018-03-21T09:47:03Z</time>
      </trkpt>
      <trkpt lat="47.11716" lon="5.55326">
        <ele>212</ele>
        <time>2018-03-21T09:47:14Z</time>
      </trkpt>
      <trkpt lat="47.1172" lon="5.55331">
        <ele>212</ele>
        <time>2018-03-21T09:47:18Z</time>
      </trkpt>
      <trkpt lat="47.11724" lon="5.55337">
        <ele>212</ele>
        <time>2018-03-21T09:47:22Z</time>
      </trkpt>
      <trkpt lat="47.11732" lon="5.55357">
        <ele>212</ele>
        <time>2018-03-21T09:47:33Z</time>
      </trkpt>
      <trkpt lat="47.11749" lon="5.55383">
        <ele>212</ele>
        <time>2018-03-21T09:47:53Z</time>
      </trkpt>
      <trkpt lat="47.11754" lon="5.55386">
        <ele>212</ele>
        <time>2018-03-21T09:47:57Z</time>
      </trkpt>
      <trkpt lat="47.11758" lon="5.55392">
        <ele>212</ele>
        <time>2018-03-21T09:48:01Z</time>
      </trkpt>
      <trkpt lat="47.11761" lon="5.55397">
        <ele>212</ele>
        <time>2018-03-21T09:48:05Z</time>
      </trkpt>
      <trkpt lat="47.11765" lon="5.55403">
        <ele>211</ele>
        <time>2018-03-21T09:48:09Z</time>
      </trkpt>
      <trkpt lat="47.11769" lon="5.55408">
        <ele>211</ele>
        <time>2018-03-21T09:48:13Z</time>
      </trkpt>
      <trkpt lat="47.11772" lon="5.55414">
        <ele>210</ele>
        <time>2018-03-21T09:48:17Z</time>
      </trkpt>
      <trkpt lat="47.11791" lon="5.5544">
        <ele>209</ele>
        <time>2018-03-21T09:48:36Z</time>
      </trkpt>
      <trkpt lat="47.118" lon="5.5545">
        <ele>209</ele>
        <time>2018-03-21T09:48:43Z</time>
      </trkpt>
      <trkpt lat="47.11808" lon="5.55457">
        <ele>209</ele>
        <time>2018-03-21T09:48:50Z</time>
      </trkpt>
      <trkpt lat="47.11822" lon="5.5548">
        <ele>210</ele>
        <time>2018-03-21T09:49:06Z</time>
      </trkpt>
      <trkpt lat="47.11827" lon="5.55484">
        <ele>210</ele>
        <time>2018-03-21T09:49:10Z</time>
      </trkpt>
      <trkpt lat="47.11833" lon="5.55496">
        <ele>210</ele>
        <time>2018-03-21T09:49:17Z</time>
      </trkpt>
      <trkpt lat="47.11847" lon="5.5551">
        <ele>210</ele>
        <time>2018-03-21T09:49:29Z</time>
      </trkpt>
      <trkpt lat="47.11854" lon="5.55521">
        <ele>210</ele>
        <time>2018-03-21T09:49:37Z</time>
      </trkpt>
      <trkpt lat="47.11876" lon="5.55552">
        <ele>211</ele>
        <time>2018-03-21T09:49:59Z</time>
      </trkpt>
      <trkpt lat="47.11879" lon="5.55559">
        <ele>211</ele>
        <time>2018-03-21T09:50:06Z</time>
      </trkpt>
      <trkpt lat="47.11883" lon="5.55564">
        <ele>212</ele>
        <time>2018-03-21T09:50:10Z</time>
      </trkpt>
      <trkpt lat="47.11891" lon="5.55574">
        <ele>211</ele>
        <time>2018-03-21T09:50:18Z</time>
      </trkpt>
      <trkpt lat="47.11893" lon="5.5558">
        <ele>211</ele>
        <time>2018-03-21T09:50:22Z</time>
      </trkpt>
      <trkpt lat="47.11901" lon="5.55591">
        <ele>210</ele>
        <time>2018-03-21T09:50:30Z</time>
      </trkpt>
      <trkpt lat="47.1191" lon="5.556">
        <ele>210</ele>
        <time>2018-03-21T09:50:38Z</time>
      </trkpt>
      <trkpt lat="47.11913" lon="5.55606">
        <ele>210</ele>
        <time>2018-03-21T09:50:43Z</time>
      </trkpt>
      <trkpt lat="47.11929" lon="5.55626">
        <ele>210</ele>
        <time>2018-03-21T09:50:58Z</time>
      </trkpt>
      <trkpt lat="47.1194" lon="5.55653">
        <ele>210</ele>
        <time>2018-03-21T09:51:13Z</time>
      </trkpt>
      <trkpt lat="47.11944" lon="5.55659">
        <ele>210</ele>
        <time>2018-03-21T09:51:17Z</time>
      </trkpt>
      <trkpt lat="47.11966" lon="5.55679">
        <ele>211</ele>
        <time>2018-03-21T09:51:37Z</time>
      </trkpt>
      <trkpt lat="47.1197" lon="5.55684">
        <ele>211</ele>
        <time>2018-03-21T09:51:41Z</time>
      </trkpt>
      <trkpt lat="47.11977" lon="5.55696">
        <ele>210</ele>
        <time>2018-03-21T09:51:49Z</time>
      </trkpt>
      <trkpt lat="47.11993" lon="5.55714">
        <ele>212</ele>
        <time>2018-03-21T09:52:05Z</time>
      </trkpt>
      <trkpt lat="47.12002" lon="5.55724">
        <ele>211</ele>
        <time>2018-03-21T09:52:13Z</time>
      </trkpt>
      <trkpt lat="47.1203" lon="5.55771">
        <ele>209</ele>
        <time>2018-03-21T09:52:44Z</time>
      </trkpt>
      <trkpt lat="47.12047" lon="5.55801">
        <ele>210</ele>
        <time>2018-03-21T09:53:03Z</time>
      </trkpt>
      <trkpt lat="47.12052" lon="5.55804">
        <ele>210</ele>
        <time>2018-03-21T09:53:07Z</time>
      </trkpt>
      <trkpt lat="47.12069" lon="5.55826">
        <ele>210</ele>
        <time>2018-03-21T09:53:22Z</time>
      </trkpt>
      <trkpt lat="47.12078" lon="5.55845">
        <ele>210</ele>
        <time>2018-03-21T09:53:33Z</time>
      </trkpt>
      <trkpt lat="47.12086" lon="5.55856">
        <ele>209</ele>
        <time>2018-03-21T09:53:41Z</time>
      </trkpt>
      <trkpt lat="47.12118" lon="5.55896">
        <ele>209</ele>
        <time>2018-03-21T09:54:13Z</time>
      </trkpt>
      <trkpt lat="47.12137" lon="5.55925">
        <ele>209</ele>
        <time>2018-03-21T09:54:33Z</time>
      </trkpt>
      <trkpt lat="47.12155" lon="5.55955">
        <ele>210</ele>
        <time>2018-03-21T09:54:52Z</time>
      </trkpt>
      <trkpt lat="47.12163" lon="5.55964">
        <ele>210</ele>
        <time>2018-03-21T09:55:00Z</time>
      </trkpt>
      <trkpt lat="47.12172" lon="5.55971">
        <ele>210</ele>
        <time>2018-03-21T09:55:08Z</time>
      </trkpt>
      <trkpt lat="47.12186" lon="5.55992">
        <ele>210</ele>
        <time>2018-03-21T09:55:23Z</time>
      </trkpt>
      <trkpt lat="47.12189" lon="5.55999">
        <ele>210</ele>
        <time>2018-03-21T09:55:27Z</time>
      </trkpt>
      <trkpt lat="47.12193" lon="5.56004">
        <ele>210</ele>
        <time>2018-03-21T09:55:31Z</time>
      </trkpt>
      <trkpt lat="47.12195" lon="5.56011">
        <ele>210</ele>
        <time>2018-03-21T09:55:34Z</time>
      </trkpt>
      <trkpt lat="47.12199" lon="5.56017">
        <ele>210</ele>
        <time>2018-03-21T09:55:38Z</time>
      </trkpt>
      <trkpt lat="47.12202" lon="5.56021">
        <ele>211</ele>
        <time>2018-03-21T09:55:42Z</time>
      </trkpt>
      <trkpt lat="47.12209" lon="5.56033">
        <ele>211</ele>
        <time>2018-03-21T09:55:50Z</time>
      </trkpt>
      <trkpt lat="47.12229" lon="5.56055">
        <ele>211</ele>
        <time>2018-03-21T09:56:10Z</time>
      </trkpt>
      <trkpt lat="47.1223" lon="5.56063">
        <ele>210</ele>
        <time>2018-03-21T09:56:16Z</time>
      </trkpt>
      <trkpt lat="47.12244" lon="5.56074">
        <ele>210</ele>
        <time>2018-03-21T09:56:28Z</time>
      </trkpt>
      <trkpt lat="47.12249" lon="5.56077">
        <ele>210</ele>
        <time>2018-03-21T09:56:32Z</time>
      </trkpt>
      <trkpt lat="47.12253" lon="5.56081">
        <ele>210</ele>
        <time>2018-03-21T09:56:36Z</time>
      </trkpt>
      <trkpt lat="47.12257" lon="5.56087">
        <ele>210</ele>
        <time>2018-03-21T09:56:40Z</time>
      </trkpt>
      <trkpt lat="47.12261" lon="5.56102">
        <ele>211</ele>
        <time>2018-03-21T09:56:49Z</time>
      </trkpt>
      <trkpt lat="47.12268" lon="5.56112">
        <ele>211</ele>
        <time>2018-03-21T09:56:58Z</time>
      </trkpt>
      <trkpt lat="47.12271" lon="5.56118">
        <ele>211</ele>
        <time>2018-03-21T09:57:04Z</time>
      </trkpt>
      <trkpt lat="47.12275" lon="5.56127">
        <ele>211</ele>
        <time>2018-03-21T09:58:56Z</time>
      </trkpt>
      <trkpt lat="47.12283" lon="5.56138">
        <ele>211</ele>
        <time>2018-03-21T09:59:04Z</time>
      </trkpt>
      <trkpt lat="47.12286" lon="5.56144">
        <ele>212</ele>
        <time>2018-03-21T09:59:09Z</time>
      </trkpt>
      <trkpt lat="47.12294" lon="5.56154">
        <ele>212</ele>
        <time>2018-03-21T09:59:16Z</time>
      </trkpt>
      <trkpt lat="47.12298" lon="5.56158">
        <ele>212</ele>
        <time>2018-03-21T09:59:20Z</time>
      </trkpt>
      <trkpt lat="47.12302" lon="5.56163">
        <ele>210</ele>
        <time>2018-03-21T09:59:25Z</time>
      </trkpt>
      <trkpt lat="47.12303" lon="5.5617">
        <ele>210</ele>
        <time>2018-03-21T09:59:33Z</time>
      </trkpt>
      <trkpt lat="47.12308" lon="5.56174">
        <ele>210</ele>
        <time>2018-03-21T09:59:37Z</time>
      </trkpt>
      <trkpt lat="47.12312" lon="5.56179">
        <ele>210</ele>
        <time>2018-03-21T09:59:41Z</time>
      </trkpt>
      <trkpt lat="47.12317" lon="5.56184">
        <ele>211</ele>
        <time>2018-03-21T09:59:45Z</time>
      </trkpt>
      <trkpt lat="47.12321" lon="5.56189">
        <ele>211</ele>
        <time>2018-03-21T09:59:49Z</time>
      </trkpt>
      <trkpt lat="47.12326" lon="5.56193">
        <ele>211</ele>
        <time>2018-03-21T09:59:52Z</time>
      </trkpt>
      <trkpt lat="47.12335" lon="5.562">
        <ele>211</ele>
        <time>2018-03-21T10:00:00Z</time>
      </trkpt>
      <trkpt lat="47.12338" lon="5.56205">
        <ele>210</ele>
        <time>2018-03-21T10:00:04Z</time>
      </trkpt>
      <trkpt lat="47.1235" lon="5.56218">
        <ele>209</ele>
        <time>2018-03-21T10:00:16Z</time>
      </trkpt>
      <trkpt lat="47.12357" lon="5.56228">
        <ele>209</ele>
        <time>2018-03-21T10:00:24Z</time>
      </trkpt>
      <trkpt lat="47.12361" lon="5.56232">
        <ele>210</ele>
        <time>2018-03-21T10:00:28Z</time>
      </trkpt>
      <trkpt lat="47.12365" lon="5.56238">
        <ele>211</ele>
        <time>2018-03-21T10:00:32Z</time>
      </trkpt>
      <trkpt lat="47.12367" lon="5.56244">
        <ele>211</ele>
        <time>2018-03-21T10:00:35Z</time>
      </trkpt>
      <trkpt lat="47.12372" lon="5.56249">
        <ele>210</ele>
        <time>2018-03-21T10:00:39Z</time>
      </trkpt>
      <trkpt lat="47.12388" lon="5.56268">
        <ele>211</ele>
        <time>2018-03-21T10:00:55Z</time>
      </trkpt>
      <trkpt lat="47.12393" lon="5.56272">
        <ele>212</ele>
        <time>2018-03-21T10:00:59Z</time>
      </trkpt>
      <trkpt lat="47.12402" lon="5.56276">
        <ele>212</ele>
        <time>2018-03-21T10:01:07Z</time>
      </trkpt>
      <trkpt lat="47.12411" lon="5.56282">
        <ele>212</ele>
        <time>2018-03-21T10:01:15Z</time>
      </trkpt>
      <trkpt lat="47.12428" lon="5.56294">
        <ele>212</ele>
        <time>2018-03-21T10:01:31Z</time>
      </trkpt>
      <trkpt lat="47.12438" lon="5.56299">
        <ele>212</ele>
        <time>2018-03-21T10:01:39Z</time>
      </trkpt>
      <trkpt lat="47.12447" lon="5.56306">
        <ele>214</ele>
        <time>2018-03-21T10:01:46Z</time>
      </trkpt>
      <trkpt lat="47.12453" lon="5.56308">
        <ele>214</ele>
        <time>2018-03-21T10:01:50Z</time>
      </trkpt>
      <trkpt lat="47.12457" lon="5.5631">
        <ele>215</ele>
        <time>2018-03-21T10:01:54Z</time>
      </trkpt>
      <trkpt lat="47.12462" lon="5.56312">
        <ele>214</ele>
        <time>2018-03-21T10:01:59Z</time>
      </trkpt>
      <trkpt lat="47.12469" lon="5.56309">
        <ele>212</ele>
        <time>2018-03-21T10:02:28Z</time>
      </trkpt>
      <trkpt lat="47.12474" lon="5.5631">
        <ele>212</ele>
        <time>2018-03-21T10:02:34Z</time>
      </trkpt>
      <trkpt lat="47.12478" lon="5.56307">
        <ele>213</ele>
        <time>2018-03-21T10:02:40Z</time>
      </trkpt>
      <trkpt lat="47.12485" lon="5.56303">
        <ele>213</ele>
        <time>2018-03-21T10:02:52Z</time>
      </trkpt>
      <trkpt lat="47.12482" lon="5.56297">
        <ele>213</ele>
        <time>2018-03-21T10:02:58Z</time>
      </trkpt>
      <trkpt lat="47.1248" lon="5.56291">
        <ele>214</ele>
        <time>2018-03-21T10:03:03Z</time>
      </trkpt>
      <trkpt lat="47.1248" lon="5.56284">
        <ele>215</ele>
        <time>2018-03-21T10:03:10Z</time>
      </trkpt>
      <trkpt lat="47.1248" lon="5.56277">
        <ele>215</ele>
        <time>2018-03-21T10:03:20Z</time>
      </trkpt>
      <trkpt lat="47.12484" lon="5.56272">
        <ele>216</ele>
        <time>2018-03-21T10:03:29Z</time>
      </trkpt>
      <trkpt lat="47.12491" lon="5.56276">
        <ele>217</ele>
        <time>2018-03-21T10:03:40Z</time>
      </trkpt>
      <trkpt lat="47.12497" lon="5.56284">
        <ele>218</ele>
        <time>2018-03-21T10:03:57Z</time>
      </trkpt>
      <trkpt lat="47.125" lon="5.5629">
        <ele>218</ele>
        <time>2018-03-21T10:04:02Z</time>
      </trkpt>
      <trkpt lat="47.12503" lon="5.56296">
        <ele>218</ele>
        <time>2018-03-21T10:04:10Z</time>
      </trkpt>
      <trkpt lat="47.12507" lon="5.56301">
        <ele>219</ele>
        <time>2018-03-21T10:04:16Z</time>
      </trkpt>
      <trkpt lat="47.12511" lon="5.56306">
        <ele>220</ele>
        <time>2018-03-21T10:04:22Z</time>
      </trkpt>
      <trkpt lat="47.12515" lon="5.56309">
        <ele>221</ele>
        <time>2018-03-21T10:04:29Z</time>
      </trkpt>
      <trkpt lat="47.12521" lon="5.56315">
        <ele>225</ele>
        <time>2018-03-21T10:04:42Z</time>
      </trkpt>
      <trkpt lat="47.12538" lon="5.5634">
        <ele>231</ele>
        <time>2018-03-21T10:05:10Z</time>
      </trkpt>
      <trkpt lat="47.12539" lon="5.56347">
        <ele>231</ele>
        <time>2018-03-21T10:05:16Z</time>
      </trkpt>
      <trkpt lat="47.12541" lon="5.56353">
        <ele>232</ele>
        <time>2018-03-21T10:05:23Z</time>
      </trkpt>
      <trkpt lat="47.12539" lon="5.5636">
        <ele>233</ele>
        <time>2018-03-21T10:05:27Z</time>
      </trkpt>
      <trkpt lat="47.12541" lon="5.5636">
        <ele>229</ele>
        <time>2018-03-21T10:09:20Z</time>
      </trkpt>
      <trkpt lat="47.12543" lon="5.56348">
        <ele>229</ele>
        <time>2018-03-21T10:10:00Z</time>
      </trkpt>
      <trkpt lat="47.1254" lon="5.56342">
        <ele>229</ele>
        <time>2018-03-21T10:10:06Z</time>
      </trkpt>
      <trkpt lat="47.12537" lon="5.56336">
        <ele>229</ele>
        <time>2018-03-21T10:10:12Z</time>
      </trkpt>
      <trkpt lat="47.12531" lon="5.56324">
        <ele>222</ele>
        <time>2018-03-21T10:10:23Z</time>
      </trkpt>
      <trkpt lat="47.12527" lon="5.5632">
        <ele>221</ele>
        <time>2018-03-21T10:10:29Z</time>
      </trkpt>
      <trkpt lat="47.12524" lon="5.56313">
        <ele>221</ele>
        <time>2018-03-21T10:10:37Z</time>
      </trkpt>
      <trkpt lat="47.12521" lon="5.56308">
        <ele>221</ele>
        <time>2018-03-21T10:10:43Z</time>
      </trkpt>
      <trkpt lat="47.12517" lon="5.56303">
        <ele>221</ele>
        <time>2018-03-21T10:10:52Z</time>
      </trkpt>
      <trkpt lat="47.12507" lon="5.56289">
        <ele>219</ele>
        <time>2018-03-21T10:11:10Z</time>
      </trkpt>
      <trkpt lat="47.12503" lon="5.56284">
        <ele>219</ele>
        <time>2018-03-21T10:11:15Z</time>
      </trkpt>
      <trkpt lat="47.12498" lon="5.56273">
        <ele>219</ele>
        <time>2018-03-21T10:11:25Z</time>
      </trkpt>
      <trkpt lat="47.12498" lon="5.56266">
        <ele>219</ele>
        <time>2018-03-21T10:11:31Z</time>
      </trkpt>
      <trkpt lat="47.12508" lon="5.56248">
        <ele>220</ele>
        <time>2018-03-21T10:11:50Z</time>
      </trkpt>
      <trkpt lat="47.12512" lon="5.56246">
        <ele>220</ele>
        <time>2018-03-21T10:11:54Z</time>
      </trkpt>
      <trkpt lat="47.12516" lon="5.5624">
        <ele>220</ele>
        <time>2018-03-21T10:12:00Z</time>
      </trkpt>
      <trkpt lat="47.12512" lon="5.56235">
        <ele>220</ele>
        <time>2018-03-21T10:12:05Z</time>
      </trkpt>
      <trkpt lat="47.12504" lon="5.56228">
        <ele>219</ele>
        <time>2018-03-21T10:12:14Z</time>
      </trkpt>
      <trkpt lat="47.12501" lon="5.56222">
        <ele>219</ele>
        <time>2018-03-21T10:12:20Z</time>
      </trkpt>
      <trkpt lat="47.12492" lon="5.56214">
        <ele>217</ele>
        <time>2018-03-21T10:12:29Z</time>
      </trkpt>
      <trkpt lat="47.12489" lon="5.56208">
        <ele>216</ele>
        <time>2018-03-21T10:12:34Z</time>
      </trkpt>
      <trkpt lat="47.12484" lon="5.56194">
        <ele>215</ele>
        <time>2018-03-21T10:12:44Z</time>
      </trkpt>
      <trkpt lat="47.1248" lon="5.56191">
        <ele>215</ele>
        <time>2018-03-21T10:12:52Z</time>
      </trkpt>
      <trkpt lat="47.12475" lon="5.56191">
        <ele>215</ele>
        <time>2018-03-21T10:13:07Z</time>
      </trkpt>
      <trkpt lat="47.12467" lon="5.56179">
        <ele>213</ele>
        <time>2018-03-21T10:14:09Z</time>
      </trkpt>
      <trkpt lat="47.12468" lon="5.56172">
        <ele>211</ele>
        <time>2018-03-21T10:14:27Z</time>
      </trkpt>
      <trkpt lat="47.1247" lon="5.56164">
        <ele>210</ele>
        <time>2018-03-21T10:14:36Z</time>
      </trkpt>
      <trkpt lat="47.12472" lon="5.56158">
        <ele>210</ele>
        <time>2018-03-21T10:14:41Z</time>
      </trkpt>
      <trkpt lat="47.12477" lon="5.56155">
        <ele>210</ele>
        <time>2018-03-21T10:14:46Z</time>
      </trkpt>
      <trkpt lat="47.1248" lon="5.56149">
        <ele>210</ele>
        <time>2018-03-21T10:14:52Z</time>
      </trkpt>
      <trkpt lat="47.12482" lon="5.56143">
        <ele>211</ele>
        <time>2018-03-21T10:14:58Z</time>
      </trkpt>
      <trkpt lat="47.12488" lon="5.56142">
        <ele>211</ele>
        <time>2018-03-21T10:15:02Z</time>
      </trkpt>
      <trkpt lat="47.12504" lon="5.56095">
        <ele>210</ele>
        <time>2018-03-21T10:15:36Z</time>
      </trkpt>
      <trkpt lat="47.12507" lon="5.56089">
        <ele>210</ele>
        <time>2018-03-21T10:15:44Z</time>
      </trkpt>
      <trkpt lat="47.12505" lon="5.56075">
        <ele>209</ele>
        <time>2018-03-21T10:15:56Z</time>
      </trkpt>
      <trkpt lat="47.12509" lon="5.56071">
        <ele>208</ele>
        <time>2018-03-21T10:16:02Z</time>
      </trkpt>
      <trkpt lat="47.12511" lon="5.56064">
        <ele>208</ele>
        <time>2018-03-21T10:16:07Z</time>
      </trkpt>
      <trkpt lat="47.12513" lon="5.56049">
        <ele>209</ele>
        <time>2018-03-21T10:16:21Z</time>
      </trkpt>
      <trkpt lat="47.12516" lon="5.56042">
        <ele>209</ele>
        <time>2018-03-21T10:16:27Z</time>
      </trkpt>
      <trkpt lat="47.12518" lon="5.56027">
        <ele>209</ele>
        <time>2018-03-21T10:16:36Z</time>
      </trkpt>
      <trkpt lat="47.12532" lon="5.55979">
        <ele>206</ele>
        <time>2018-03-21T10:17:11Z</time>
      </trkpt>
      <trkpt lat="47.12536" lon="5.55975">
        <ele>206</ele>
        <time>2018-03-21T10:17:16Z</time>
      </trkpt>
      <trkpt lat="47.12541" lon="5.55977">
        <ele>206</ele>
        <time>2018-03-21T10:17:23Z</time>
      </trkpt>
      <trkpt lat="47.12546" lon="5.55976">
        <ele>206</ele>
        <time>2018-03-21T10:17:28Z</time>
      </trkpt>
      <trkpt lat="47.12549" lon="5.5597">
        <ele>205</ele>
        <time>2018-03-21T10:17:33Z</time>
      </trkpt>
    </trkseg>
  </trk>
</gpx>